createdAt,value
2018-12-26T00:01:55.571Z,20.13
2018-12-26T00:06:56.675Z,19.77
2018-12-26T00:11:57.775Z,19.40
2018-12-26T00:16:58.888Z,19.70
2018-12-26T00:21:59.969Z,19.80
2018-12-26T00:27:01.069Z,22.00
2018-12-26T00:32:02.175Z,20.33
2018-12-26T00:37:03.280Z,22.53
2018-12-26T00:42:04.392Z,21.00
2018-12-26T00:47:05.502Z,20.10
2018-12-26T00:52:06.582Z,23.13
2018-12-26T00:57:07.695Z,21.33
2018-12-26T01:02:08.796Z,20.03
2018-12-26T01:07:09.891Z,20.07
2018-12-26T01:12:10.995Z,20.50
2018-12-26T01:17:12.122Z,20.50
2018-12-26T01:22:13.224Z,19.37
2018-12-26T01:27:14.319Z,18.93
2018-12-26T01:32:15.415Z,18.97
2018-12-26T01:37:16.511Z,17.77
2018-12-26T01:42:17.611Z,18.07
2018-12-26T01:47:18.708Z,17.50
2018-12-26T01:52:19.815Z,16.87
2018-12-26T01:57:20.956Z,16.60
2018-12-26T02:02:22.029Z,15.83
2018-12-26T02:07:23.122Z,17.20
2018-12-26T02:12:24.214Z,16.60
2018-12-26T02:17:25.509Z,13.93
2018-12-26T02:22:26.598Z,16.07
2018-12-26T02:27:27.694Z,15.00
2018-12-26T02:32:30.370Z,17.60
2018-12-26T02:37:31.808Z,16.60
2018-12-26T02:42:32.902Z,17.57
2018-12-26T02:47:34.007Z,16.97
2018-12-26T02:52:35.091Z,17.73
2018-12-26T02:57:36.227Z,19.20
2018-12-26T03:02:37.321Z,17.63
2018-12-26T03:07:38.411Z,21.77
2018-12-26T03:12:39.515Z,17.33
2018-12-26T03:17:40.633Z,18.17
2018-12-26T03:22:41.719Z,18.13
2018-12-26T03:27:42.817Z,17.63
2018-12-26T03:32:44.004Z,18.50
2018-12-26T03:37:45.100Z,18.60
2018-12-26T03:42:46.603Z,18.73
2018-12-26T03:47:48.406Z,19.63
2018-12-26T03:52:49.520Z,19.80
2018-12-26T03:57:50.635Z,18.70
2018-12-26T04:02:51.742Z,19.13
2018-12-26T04:07:53.135Z,18.50
2018-12-26T04:12:54.211Z,19.40
2018-12-26T04:17:55.515Z,17.03
2018-12-26T04:22:56.918Z,19.53
2018-12-26T04:27:58.007Z,21.17
2018-12-26T04:32:59.103Z,20.43
2018-12-26T04:38:00.218Z,18.93
2018-12-26T04:43:01.323Z,18.70
2018-12-26T04:48:02.413Z,16.50
2018-12-26T04:53:03.550Z,17.23
2018-12-26T04:58:04.710Z,20.03
2018-12-26T05:03:05.810Z,15.73
2018-12-26T05:08:06.903Z,15.33
2018-12-26T05:13:07.998Z,14.90
2018-12-26T05:18:09.090Z,16.27
2018-12-26T05:23:10.283Z,17.03
2018-12-26T05:28:11.448Z,17.47
2018-12-26T05:33:12.640Z,17.43
2018-12-26T05:38:13.743Z,15.03
2018-12-26T05:43:14.839Z,15.00
2018-12-26T05:48:15.940Z,15.33
2018-12-26T05:53:17.071Z,14.03
2018-12-26T05:58:18.252Z,14.60
2018-12-26T06:03:19.346Z,14.17
2018-12-26T06:08:20.459Z,13.93
2018-12-26T06:13:21.540Z,14.10
2018-12-26T06:18:22.673Z,15.13
2018-12-26T06:23:23.899Z,14.97
2018-12-26T06:28:25.010Z,15.50
2018-12-26T06:33:26.108Z,15.43
2018-12-26T06:38:27.227Z,16.63
2018-12-26T06:43:28.343Z,15.77
2018-12-26T06:48:29.438Z,15.60
2018-12-26T06:53:30.536Z,16.33
2018-12-26T06:58:31.655Z,16.13
2018-12-26T07:03:32.747Z,16.37
2018-12-26T07:08:33.834Z,14.83
2018-12-26T07:13:34.940Z,16.03
2018-12-26T07:18:36.030Z,14.60
2018-12-26T07:23:37.263Z,15.97
2018-12-26T07:28:38.356Z,16.33
2018-12-26T07:33:39.447Z,16.13
2018-12-26T07:38:40.544Z,14.53
2018-12-26T07:43:41.650Z,15.50
2018-12-26T07:48:42.751Z,15.30
2018-12-26T07:53:43.854Z,14.87
2018-12-26T07:58:45.007Z,16.07
2018-12-26T08:03:46.114Z,21.60
2018-12-26T08:08:47.207Z,14.53
2018-12-26T08:13:48.308Z,13.73
2018-12-26T08:18:49.437Z,12.40
2018-12-26T08:23:50.531Z,11.90
2018-12-26T08:28:51.671Z,14.60
2018-12-26T08:33:52.752Z,13.47
2018-12-26T08:38:53.839Z,14.70
2018-12-26T08:43:54.939Z,14.30
2018-12-26T08:48:56.044Z,15.67
2018-12-26T08:53:57.165Z,14.43
2018-12-26T08:58:58.255Z,16.07
2018-12-26T09:03:59.347Z,16.43
2018-12-26T09:09:00.444Z,14.50
2018-12-26T09:14:01.547Z,15.47
2018-12-26T09:19:02.776Z,16.00
2018-12-26T09:24:03.935Z,16.13
2018-12-26T09:29:05.048Z,16.23
2018-12-26T09:34:06.151Z,15.13
2018-12-26T09:39:07.244Z,15.33
2018-12-26T09:44:08.352Z,16.77
2018-12-26T09:49:09.453Z,14.73
2018-12-26T09:54:10.555Z,14.70
2018-12-26T09:59:11.681Z,14.47
2018-12-26T10:04:12.789Z,14.17
2018-12-26T10:09:13.873Z,14.80
2018-12-26T10:14:14.983Z,14.03
2018-12-26T10:19:16.231Z,15.40
2018-12-26T10:24:17.314Z,14.70
2018-12-26T10:29:18.418Z,13.90
2018-12-26T10:34:19.532Z,14.27
2018-12-26T10:39:20.631Z,14.40
2018-12-26T10:44:21.719Z,14.90
2018-12-26T10:49:22.823Z,13.53
2018-12-26T10:54:23.939Z,15.00
2018-12-26T10:59:25.047Z,15.27
2018-12-26T11:04:26.140Z,14.20
2018-12-26T11:09:28.156Z,14.63
2018-12-26T11:14:29.280Z,15.17
2018-12-26T11:19:30.419Z,14.87
2018-12-26T11:24:31.506Z,15.73
2018-12-26T11:29:32.609Z,15.97
2018-12-26T11:34:33.719Z,16.83
2018-12-26T11:39:34.966Z,14.03
2018-12-26T11:44:36.151Z,14.07
2018-12-26T11:49:37.777Z,12.43
2018-12-26T11:54:39.137Z,16.07
2018-12-26T11:59:40.319Z,14.77
2018-12-26T12:04:41.437Z,15.33
2018-12-26T12:09:44.029Z,14.40
2018-12-26T12:14:45.147Z,14.70
2018-12-26T12:19:46.260Z,14.57
2018-12-26T12:24:47.393Z,15.10
2018-12-26T12:29:48.504Z,12.77
2018-12-26T12:34:49.819Z,12.83
2018-12-26T12:39:51.057Z,14.47
2018-12-26T12:44:52.158Z,14.47
2018-12-26T12:49:53.354Z,14.17
2018-12-26T12:54:54.484Z,14.37
2018-12-26T12:59:55.685Z,13.77
2018-12-26T13:04:56.786Z,15.03
2018-12-26T13:09:57.954Z,15.63
2018-12-26T13:14:59.087Z,15.27
2018-12-26T13:20:00.214Z,13.40
2018-12-26T13:25:01.425Z,13.40
2018-12-26T13:30:06.203Z,15.87
2018-12-26T13:35:07.316Z,15.43
2018-12-26T13:40:08.445Z,15.63
2018-12-26T13:45:09.542Z,15.33
2018-12-26T13:50:10.658Z,13.57
2018-12-26T13:55:11.784Z,14.47
2018-12-26T14:00:12.880Z,14.90
2018-12-26T14:05:13.992Z,15.30
2018-12-26T14:10:15.084Z,16.10
2018-12-26T14:15:16.180Z,16.33
2018-12-26T14:20:17.284Z,16.37
2018-12-26T14:25:18.412Z,16.27
2018-12-26T14:30:19.500Z,15.17
2018-12-26T14:35:20.605Z,16.63
2018-12-26T14:40:21.716Z,15.87
2018-12-26T14:45:22.814Z,16.50
2018-12-26T14:50:23.937Z,16.13
2018-12-26T14:55:25.159Z,16.37
2018-12-26T15:00:26.263Z,17.40
2018-12-26T15:05:27.372Z,17.80
2018-12-26T15:10:28.468Z,19.40
2018-12-26T15:15:29.579Z,16.70
2018-12-26T15:20:30.688Z,15.33
2018-12-26T15:25:31.771Z,15.60
2018-12-26T15:30:32.875Z,16.33
2018-12-26T15:35:33.980Z,16.37
2018-12-26T15:40:35.079Z,17.77
2018-12-26T15:45:36.179Z,18.63
2018-12-26T15:50:37.410Z,18.70
2018-12-26T15:55:38.609Z,20.17
2018-12-26T16:00:39.736Z,17.33
2018-12-26T16:05:40.805Z,15.80
2018-12-26T16:10:41.908Z,16.87
2018-12-26T16:15:43.022Z,16.50
2018-12-26T16:20:44.146Z,18.07
2018-12-26T16:25:45.293Z,20.03
2018-12-26T16:30:46.576Z,14.03
2018-12-26T16:35:47.835Z,13.53
2018-12-26T16:40:48.941Z,14.80
2018-12-26T16:45:50.039Z,13.77
2018-12-26T16:50:51.172Z,15.83
2018-12-26T16:55:52.491Z,16.17
2018-12-26T17:00:55.199Z,22.47
2018-12-26T17:05:56.607Z,21.13
2018-12-26T17:10:57.719Z,22.80
2018-12-26T17:15:58.822Z,30.63
2018-12-26T17:21:00.031Z,25.53
2018-12-26T17:26:01.184Z,24.13
2018-12-26T17:31:04.282Z,18.97
2018-12-26T17:36:05.395Z,23.93
2018-12-26T17:41:06.570Z,26.63
2018-12-26T17:46:07.676Z,25.27
2018-12-26T17:51:09.403Z,18.63
2018-12-26T17:56:14.332Z,18.00
2018-12-26T18:01:22.012Z,17.60
2018-12-26T18:06:23.107Z,15.17
2018-12-26T18:11:24.216Z,12.80
2018-12-26T18:16:25.368Z,13.57
2018-12-26T18:21:26.489Z,14.27
2018-12-26T18:26:27.612Z,15.43
2018-12-26T18:31:28.744Z,15.40
2018-12-26T18:36:29.841Z,13.33
2018-12-26T18:41:31.048Z,13.37
2018-12-26T18:46:32.147Z,15.20
2018-12-26T18:51:33.262Z,22.87
2018-12-26T18:56:34.521Z,15.67
2018-12-26T19:01:35.605Z,12.23
2018-12-26T19:06:36.713Z,16.13
2018-12-26T19:11:37.927Z,16.70
2018-12-26T19:16:39.041Z,17.07
2018-12-26T19:21:40.134Z,19.00
2018-12-26T19:26:41.344Z,15.73
2018-12-26T19:31:42.469Z,12.60
2018-12-26T19:36:43.580Z,11.33
2018-12-26T19:41:44.688Z,10.47
2018-12-26T19:46:45.779Z,11.60
2018-12-26T19:51:46.990Z,11.97
2018-12-26T19:56:48.217Z,11.83
2018-12-26T20:01:49.432Z,12.40
2018-12-26T20:06:50.587Z,12.73
2018-12-26T20:11:51.707Z,12.30
2018-12-26T20:16:52.898Z,17.50
2018-12-26T20:21:54.002Z,15.73
2018-12-26T20:26:55.167Z,16.87
2018-12-26T20:31:56.973Z,6.77
2018-12-26T20:36:58.464Z,7.97
2018-12-26T20:41:59.580Z,6.90
2018-12-26T20:47:00.688Z,7.20
2018-12-26T20:52:02.197Z,9.10
2018-12-26T20:57:03.428Z,8.20
2018-12-26T21:02:05.789Z,8.63
2018-12-26T21:07:07.773Z,8.13
2018-12-26T21:12:08.872Z,8.50
2018-12-26T21:17:09.979Z,8.93
2018-12-26T21:22:11.198Z,8.03
2018-12-26T21:27:12.332Z,8.70
2018-12-26T21:32:14.151Z,8.07
2018-12-26T21:37:15.631Z,9.77
2018-12-26T21:42:16.751Z,9.50
2018-12-26T21:47:17.857Z,10.73
2018-12-26T21:52:19.078Z,7.47
2018-12-26T21:57:20.171Z,6.27
2018-12-26T22:02:22.567Z,6.20
2018-12-26T22:07:23.990Z,6.60
2018-12-26T22:12:25.099Z,7.10
2018-12-26T22:17:26.181Z,5.60
2018-12-26T22:22:27.281Z,6.37
2018-12-26T22:27:28.421Z,6.50
2018-12-26T22:32:30.764Z,7.00
2018-12-26T22:37:32.190Z,7.00
2018-12-26T22:42:33.317Z,6.73
2018-12-26T22:47:34.417Z,10.93
2018-12-26T22:52:35.590Z,10.07
2018-12-26T22:57:36.767Z,7.30
2018-12-26T23:02:38.977Z,7.17
2018-12-26T23:07:40.496Z,6.40
2018-12-26T23:12:41.599Z,8.37
2018-12-26T23:17:42.721Z,16.17
2018-12-26T23:22:43.843Z,8.83
2018-12-26T23:27:45.100Z,8.07
2018-12-26T23:32:47.119Z,7.77
2018-12-26T23:37:48.615Z,6.03
2018-12-26T23:42:49.726Z,4.60
2018-12-26T23:47:50.922Z,7.10
2018-12-26T23:52:52.023Z,6.97
2018-12-26T23:57:53.152Z,7.57
